Time;durP1;ratioP1;P1;durP2;ratioP2;P2;SDS_P1;SDS_P2;PMS_P1;PMS_P2;Temp;Humidity;BMP_temperature;BMP_pressure;BME280_temperature;BME280_humidity;BME280_pressure;Samples;Min_cycle;Max_cycle;Signal;HPM_P1;HPM_P2
2021/12/08 00:01:13;;;;;;;18.80;17.10;;;8.70;99.90;;;;;;5035721;28;20025;-71
2021/12/08 00:03:39;;;;;;;13.82;10.98;;;8.70;99.90;;;;;;5037171;28;20112;-71
2021/12/08 00:06:06;;;;;;;9.88;6.65;;;8.70;99.90;;;;;;5035139;28;20112;-70
2021/12/08 00:08:33;;;;;;;9.23;6.78;;;8.70;99.90;;;;;;5035243;28;20037;-70
2021/12/08 00:13:29;;;;;;;9.57;4.35;;;8.60;99.90;;;;;;5038512;28;20151;-71
2021/12/08 00:15:59;;;;;;;8.00;4.50;;;8.60;99.90;;;;;;5035088;28;20041;-70
2021/12/08 00:18:28;;;;;;;9.25;4.63;;;8.60;99.90;;;;;;5037810;28;22668;-71
2021/12/08 00:20:56;;;;;;;8.55;4.50;;;8.60;99.90;;;;;;5034393;28;20021;-70
2021/12/08 00:23:23;;;;;;;9.73;4.82;;;8.50;99.90;;;;;;5035698;28;20041;-70
2021/12/08 00:25:50;;;;;;;7.82;4.40;;;8.60;99.90;;;;;;5038357;28;20025;-70
2021/12/08 00:28:16;;;;;;;9.15;4.78;;;8.60;99.90;;;;;;5035930;28;20026;-71
2021/12/08 00:30:47;;;;;;;9.27;4.60;;;8.50;99.90;;;;;;5036686;28;20112;-71
2021/12/08 00:33:14;;;;;;;10.43;6.88;;;8.60;99.90;;;;;;5041087;28;20025;-71
2021/12/08 00:35:48;;;;;;;11.98;9.05;;;8.60;99.90;;;;;;5041319;28;20060;-71
2021/12/08 00:38:17;;;;;;;11.13;8.23;;;8.60;99.90;;;;;;5042826;28;20429;-70
2021/12/08 00:40:44;;;;;;;14.10;12.80;;;8.60;99.90;;;;;;5041821;28;20029;-71
2021/12/08 00:43:10;;;;;;;16.13;14.57;;;8.60;99.90;;;;;;5041994;28;20558;-71
2021/12/08 00:45:36;;;;;;;17.50;15.68;;;8.60;99.90;;;;;;5045283;28;20039;-71
2021/12/08 00:48:03;;;;;;;12.73;8.27;;;8.70;99.90;;;;;;5042295;28;20016;-70
2021/12/08 00:50:32;;;;;;;9.20;5.13;;;8.60;99.90;;;;;;5027989;28;20064;-76
2021/12/08 00:52:58;;;;;;;10.20;4.90;;;8.60;99.90;;;;;;5049275;28;20037;-76
2021/12/08 00:55:25;;;;;;;9.63;4.90;;;8.60;99.90;;;;;;5051360;28;20490;-76
2021/12/08 00:57:52;;;;;;;7.35;4.03;;;8.60;99.90;;;;;;5049578;28;20063;-76
2021/12/08 01:00:24;;;;;;;8.13;4.28;;;8.60;99.90;;;;;;5050692;28;20490;-76
2021/12/08 01:02:50;;;;;;;9.88;3.42;;;8.40;99.90;;;;;;5052074;28;20055;-76
2021/12/08 01:05:21;;;;;;;10.00;3.90;;;8.40;99.90;;;;;;5049133;28;20068;-76
2021/12/08 01:07:46;;;;;;;8.73;3.70;;;8.50;99.90;;;;;;5049045;28;20013;-76
2021/12/08 01:10:17;;;;;;;7.60;3.80;;;8.60;99.90;;;;;;5051286;28;20033;-76
2021/12/08 01:12:43;;;;;;;10.25;6.30;;;8.60;99.90;;;;;;5051605;28;20449;-77
2021/12/08 01:15:10;;;;;;;12.63;9.25;;;8.70;99.90;;;;;;5051617;28;20091;-76
2021/12/08 01:17:38;;;;;;;10.40;7.13;;;8.70;99.90;;;;;;5052188;28;20532;-76
2021/12/08 01:20:07;;;;;;;7.75;4.70;;;8.70;99.90;;;;;;5051222;28;20053;-76
2021/12/08 01:22:33;;;;;;;6.65;3.72;;;8.70;99.90;;;;;;5051382;28;20573;-76
2021/12/08 01:24:58;;;;;;;9.80;3.50;;;8.80;99.90;;;;;;5051391;28;20390;-77
2021/12/08 01:27:24;;;;;;;6.55;3.53;;;8.70;99.90;;;;;;5051187;28;20036;-77
2021/12/08 01:29:50;;;;;;;6.70;3.50;;;8.70;99.90;;;;;;5052019;28;20477;-77
2021/12/08 01:32:16;;;;;;;8.45;3.78;;;8.70;99.90;;;;;;5051687;28;20037;-77
2021/12/08 01:34:41;;;;;;;8.65;3.97;;;8.70;99.90;;;;;;5051108;28;20021;-76
2021/12/08 01:37:07;;;;;;;8.02;3.53;;;8.70;99.90;;;;;;5050525;28;20037;-77
2021/12/08 01:39:33;;;;;;;7.88;3.17;;;8.80;99.90;;;;;;5051021;28;20115;-76
2021/12/08 01:41:59;;;;;;;6.00;3.33;;;8.80;99.90;;;;;;5051068;28;20029;-77
2021/12/08 01:47:09;;;;;;;6.82;3.30;;;8.80;99.90;;;;;;5048762;28;20137;-78
2021/12/08 01:49:35;;;;;;;6.15;3.53;;;8.80;99.90;;;;;;5045977;28;20128;-77
2021/12/08 01:52:00;;;;;;;7.38;3.47;;;8.80;99.90;;;;;;5050582;28;20025;-77
2021/12/08 01:54:26;;;;;;;5.80;3.35;;;8.90;99.90;;;;;;5044828;28;20442;-77
2021/12/08 01:56:52;;;;;;;6.13;2.95;;;8.80;99.90;;;;;;5051331;28;20028;-77
2021/12/08 01:59:18;;;;;;;6.40;3.40;;;8.80;99.90;;;;;;5050797;28;20410;-76
2021/12/08 02:01:44;;;;;;;5.50;3.00;;;8.80;99.90;;;;;;5050876;28;20032;-77
2021/12/08 02:04:11;;;;;;;6.03;3.42;;;8.80;99.90;;;;;;5050671;28;20029;-77
2021/12/08 02:06:43;;;;;;;5.90;3.30;;;8.80;99.90;;;;;;5050517;28;20371;-77
2021/12/08 02:09:12;;;;;;;7.57;3.55;;;8.80;99.90;;;;;;5049903;28;20036;-76
2021/12/08 02:11:40;;;;;;;6.80;3.10;;;8.70;99.90;;;;;;5051223;28;20049;-77
2021/12/08 02:14:06;;;;;;;6.30;3.25;;;8.70;99.90;;;;;;5050938;28;20040;-76
2021/12/08 02:16:32;;;;;;;8.35;3.55;;;8.70;99.90;;;;;;5050574;28;20092;-76
2021/12/08 02:18:59;;;;;;;7.20;3.38;;;8.80;99.90;;;;;;5050577;28;20033;-77
2021/12/08 02:21:37;;;;;;;6.40;3.50;;;8.70;99.90;;;;;;5050657;28;20113;-77
2021/12/08 02:26:41;;;;;;;5.18;3.08;;;8.80;99.90;;;;;;5697732;22;20212;-75
2021/12/08 02:29:11;;;;;;;6.50;3.83;;;8.70;99.90;;;;;;5050789;28;20029;-75
2021/12/08 02:31:47;;;;;;;10.40;4.28;;;8.80;99.90;;;;;;5057407;28;20031;-75
2021/12/08 02:48:15;;;;;;;7.95;3.88;;;8.70;99.90;;;;;;5028232;28;20053;-75
2021/12/08 02:50:43;;;;;;;7.47;3.83;;;8.60;99.90;;;;;;5028654;28;20030;-75
2021/12/08 02:53:10;;;;;;;6.07;3.67;;;8.70;99.90;;;;;;5028286;28;20037;-75
2021/12/08 02:55:36;;;;;;;8.63;3.90;;;8.70;99.90;;;;;;5028671;28;20045;-75
2021/12/08 02:58:04;;;;;;;6.63;4.10;;;8.70;99.90;;;;;;5027174;28;20025;-75
2021/12/08 03:00:34;;;;;;;6.85;4.03;;;8.60;99.90;;;;;;5028297;28;20064;-75
2021/12/08 03:03:02;;;;;;;6.78;3.67;;;8.60;99.90;;;;;;5028590;28;20037;-75
2021/12/08 03:05:28;;;;;;;8.15;4.10;;;8.70;99.90;;;;;;5028081;28;20064;-75
2021/12/08 03:07:54;;;;;;;7.10;3.90;;;8.70;99.90;;;;;;5038796;28;20044;-75
2021/12/08 03:10:24;;;;;;;7.72;3.88;;;8.70;99.90;;;;;;5054415;28;20074;-75
2021/12/08 03:12:50;;;;;;;7.35;3.97;;;8.70;99.90;;;;;;5051153;28;20032;-75
2021/12/08 03:15:16;;;;;;;10.23;4.05;;;8.70;99.90;;;;;;5049751;28;20030;-75
2021/12/08 03:17:42;;;;;;;7.38;4.03;;;8.70;99.90;;;;;;5056476;28;20033;-74
2021/12/08 03:20:12;;;;;;;12.35;8.60;;;8.70;99.90;;;;;;5055714;28;20048;-75
2021/12/08 03:22:43;;;;;;;13.13;11.50;;;8.70;99.90;;;;;;5059367;28;20029;-75
2021/12/08 03:25:13;;;;;;;11.32;9.88;;;8.70;99.90;;;;;;5059926;28;20111;-75
2021/12/08 03:27:47;;;;;;;12.95;9.95;;;8.60;99.90;;;;;;5046064;28;20032;-75
2021/12/08 03:30:20;;;;;;;9.90;8.88;;;8.70;99.90;;;;;;5052490;28;20033;-75
2021/12/08 03:32:46;;;;;;;14.25;11.25;;;8.60;99.90;;;;;;5059032;28;20032;-75
2021/12/08 03:35:15;;;;;;;10.73;8.70;;;8.70;99.90;;;;;;5059094;28;20029;-75
2021/12/08 03:37:44;;;;;;;8.57;5.95;;;8.70;99.90;;;;;;5057842;28;20017;-75
2021/12/08 03:40:28;;;;;;;11.25;7.40;;;8.60;99.90;;;;;;5055235;28;20040;-75
2021/12/08 03:42:57;;;;;;;11.73;8.20;;;8.70;99.90;;;;;;5049567;28;20021;-75
2021/12/08 03:45:43;;;;;;;11.85;9.98;;;8.70;99.90;;;;;;5052916;28;20116;-75
2021/12/08 03:48:13;;;;;;;13.05;11.50;;;8.60;99.90;;;;;;5052739;28;20049;-75
2021/12/08 03:50:41;;;;;;;13.00;8.40;;;8.60;99.90;;;;;;5060017;28;20428;-75
2021/12/08 03:53:09;;;;;;;9.32;5.25;;;8.60;99.90;;;;;;5058712;28;20377;-74
2021/12/08 03:55:35;;;;;;;9.05;4.95;;;8.60;99.90;;;;;;5056699;28;20021;-75
2021/12/08 03:58:00;;;;;;;8.27;4.75;;;8.60;99.90;;;;;;5054185;28;20097;-75
2021/12/08 04:00:31;;;;;;;8.45;4.90;;;8.50;99.90;;;;;;5051631;28;20397;-75
2021/12/08 04:03:02;;;;;;;6.93;4.80;;;8.50;99.90;;;;;;5060849;28;20029;-75
2021/12/08 04:05:45;;;;;;;8.93;5.20;;;8.50;99.90;;;;;;5060325;28;20025;-75
2021/12/08 04:08:17;;;;;;;10.68;5.00;;;8.50;99.90;;;;;;5058157;28;20025;-75
2021/12/08 04:10:46;;;;;;;7.68;5.00;;;8.50;99.90;;;;;;5050423;28;20025;-75
2021/12/08 04:13:13;;;;;;;8.23;5.18;;;8.50;99.90;;;;;;5054887;28;20078;-75
2021/12/08 04:15:39;;;;;;;8.02;5.05;;;8.50;99.90;;;;;;5058030;28;20410;-75
2021/12/08 04:18:05;;;;;;;8.50;5.45;;;8.50;99.90;;;;;;5059798;28;20070;-75
2021/12/08 04:20:36;;;;;;;9.40;6.43;;;8.50;99.90;;;;;;5057642;28;20029;-75
2021/12/08 04:23:04;;;;;;;11.77;7.30;;;8.50;99.90;;;;;;5050088;28;20106;-76
2021/12/08 04:25:35;;;;;;;10.30;7.05;;;8.50;99.90;;;;;;5052849;28;20481;-75
2021/12/08 04:28:07;;;;;;;9.05;6.07;;;8.50;99.90;;;;;;5053811;28;20044;-76
2021/12/08 04:30:37;;;;;;;8.40;5.40;;;8.50;99.90;;;;;;5056805;28;20025;-75
2021/12/08 04:33:03;;;;;;;9.25;5.63;;;8.50;99.90;;;;;;5057913;28;20064;-74
2021/12/08 04:35:30;;;;;;;8.82;5.18;;;8.40;99.90;;;;;;5055329;28;20531;-75
2021/12/08 04:38:01;;;;;;;9.85;5.38;;;8.40;99.90;;;;;;5055878;28;20028;-75
2021/12/08 04:40:40;;;;;;;8.75;5.53;;;8.50;99.90;;;;;;5050748;28;20480;-75
2021/12/08 04:43:35;;;;;;;8.35;5.32;;;8.50;99.90;;;;;;5052974;28;20051;-75
2021/12/08 04:46:47;;;;;;;10.30;6.63;;;8.50;99.90;;;;;;5046005;28;20108;-75
2021/12/08 05:06:16;;;;;;;8.18;5.00;;;8.60;99.90;;;;;;5056802;28;20029;-75
2021/12/08 05:08:34;;;;;;;8.63;5.30;;;8.60;99.90;;;;;;5055497;28;20048;-76
2021/12/08 05:11:00;;;;;;;7.80;5.70;;;8.60;99.90;;;;;;5056551;28;20463;-75
2021/12/08 05:13:26;;;;;;;8.82;6.57;;;8.60;99.90;;;;;;5056066;28;20142;-75
2021/12/08 05:15:55;;;;;;;9.50;6.10;;;8.60;99.90;;;;;;5046387;28;20017;-75
2021/12/08 05:18:36;;;;;;;9.80;6.22;;;8.60;99.90;;;;;;5052624;28;20064;-75
2021/12/08 05:21:08;;;;;;;9.15;5.22;;;8.60;99.90;;;;;;5048046;28;20021;-75
2021/12/08 05:23:48;;;;;;;9.07;5.28;;;8.60;99.90;;;;;;5046652;28;20024;-75
2021/12/08 05:26:24;;;;;;;8.55;5.00;;;8.60;99.90;;;;;;5056467;28;20598;-74
2021/12/08 05:28:51;;;;;;;8.00;4.75;;;8.60;99.90;;;;;;5056441;28;20067;-75
2021/12/08 05:31:21;;;;;;;9.18;5.15;;;8.60;99.90;;;;;;5052499;28;20020;-75
2021/12/08 05:33:48;;;;;;;8.82;4.88;;;8.50;99.90;;;;;;5048643;28;20037;-74
2021/12/08 05:36:15;;;;;;;8.75;5.38;;;8.60;99.90;;;;;;5053671;28;20021;-75
2021/12/08 05:38:43;;;;;;;11.43;4.85;;;8.50;99.90;;;;;;5054613;28;20040;-77
2021/12/08 05:41:16;;;;;;;10.68;5.43;;;8.50;99.90;;;;;;5055829;28;20032;-75
2021/12/08 05:43:43;;;;;;;8.77;4.95;;;8.50;99.90;;;;;;5056830;28;20031;-74
2021/12/08 05:46:11;;;;;;;8.07;4.85;;;8.40;99.90;;;;;;5049480;28;20032;-75
2021/12/08 05:48:37;;;;;;;9.52;4.63;;;8.40;99.90;;;;;;5048383;28;20029;-75
2021/12/08 05:51:14;;;;;;;8.75;5.32;;;8.40;99.90;;;;;;5056131;28;20078;-74
2021/12/08 05:53:43;;;;;;;9.88;5.55;;;8.30;99.90;;;;;;5055125;28;20403;-75
2021/12/08 05:56:10;;;;;;;9.35;5.20;;;8.30;99.90;;;;;;5061606;28;20607;-75
2021/12/08 05:58:38;;;;;;;12.10;6.60;;;8.30;99.90;;;;;;5056936;28;20063;-75
2021/12/08 06:01:16;;;;;;;10.90;6.18;;;8.20;99.90;;;;;;5054152;28;20043;-74
2021/12/08 06:03:44;;;;;;;11.23;6.20;;;8.20;99.90;;;;;;5052119;28;20540;-74
2021/12/08 06:06:10;;;;;;;10.02;5.82;;;8.30;99.90;;;;;;5051653;28;20025;-75
2021/12/08 06:08:37;;;;;;;11.23;6.28;;;8.20;99.90;;;;;;5049655;28;20612;-75
2021/12/08 06:11:04;;;;;;;12.07;6.07;;;8.30;99.90;;;;;;5063606;28;20028;-76
2021/12/08 06:13:31;;;;;;;10.32;5.72;;;8.30;99.90;;;;;;5056852;28;20036;-75
2021/12/08 06:15:58;;;;;;;9.40;6.07;;;8.30;99.90;;;;;;5052288;28;20082;-75
2021/12/08 06:18:26;;;;;;;10.35;6.55;;;8.20;99.90;;;;;;5056766;28;20041;-75
2021/12/08 06:20:57;;;;;;;12.25;6.95;;;8.20;99.90;;;;;;5052705;28;20041;-75
2021/12/08 06:23:23;;;;;;;11.73;6.18;;;8.20;99.90;;;;;;5052144;28;20028;-75
2021/12/08 06:25:49;;;;;;;10.88;6.15;;;8.20;99.90;;;;;;5054785;28;20025;-76
2021/12/08 06:28:15;;;;;;;13.55;7.28;;;8.10;99.90;;;;;;5052529;28;20075;-76
2021/12/08 06:30:45;;;;;;;14.45;8.13;;;8.10;99.90;;;;;;5053597;28;20409;-75
2021/12/08 06:33:13;;;;;;;11.98;7.00;;;8.20;99.90;;;;;;5052777;28;20033;-75
2021/12/08 06:35:47;;;;;;;12.38;7.60;;;8.20;99.90;;;;;;5050339;28;20025;-75
2021/12/08 06:38:14;;;;;;;12.63;7.28;;;8.20;99.90;;;;;;5055831;28;20515;-75
2021/12/08 06:40:59;;;;;;;12.80;7.68;;;8.30;99.90;;;;;;5055593;28;20392;-74
2021/12/08 06:43:30;;;;;;;12.65;6.50;;;8.40;99.90;;;;;;5052710;28;20036;-75
2021/12/08 06:45:58;;;;;;;12.88;6.70;;;8.40;99.90;;;;;;5050168;28;20025;-76
2021/12/08 06:48:31;;;;;;;13.68;7.18;;;8.30;99.90;;;;;;5052401;28;20025;-74
2021/12/08 06:51:00;;;;;;;10.20;7.20;;;8.20;99.90;;;;;;5054230;28;20465;-75
2021/12/08 06:53:28;;;;;;;13.05;7.28;;;8.20;99.90;;;;;;5055613;28;20033;-74
2021/12/08 06:55:59;;;;;;;11.77;8.02;;;8.20;99.90;;;;;;5063714;28;20051;-75
2021/12/08 06:58:29;;;;;;;14.52;8.23;;;8.30;99.90;;;;;;5059997;28;20040;-75
2021/12/08 07:01:19;;;;;;;14.77;8.73;;;8.30;99.90;;;;;;5055817;28;20374;-75
2021/12/08 07:07:17;;;;;;;12.52;7.28;;;8.10;99.90;;;;;;5018466;28;20544;-75
2021/12/08 07:09:48;;;;;;;14.85;7.90;;;8.20;99.90;;;;;;5018716;28;20124;-75
2021/12/08 07:12:13;;;;;;;11.15;7.38;;;8.10;99.90;;;;;;5007774;28;20030;-75
2021/12/08 07:14:41;;;;;;;19.85;10.13;;;8.00;99.90;;;;;;5020457;28;20037;-75
2021/12/08 07:17:13;;;;;;;13.07;7.47;;;8.00;99.90;;;;;;5023706;28;20032;-74
2021/12/08 07:19:49;;;;;;;13.05;7.47;;;8.00;99.90;;;;;;5011979;28;20550;-74
2021/12/08 07:22:22;;;;;;;13.65;6.22;;;8.00;99.90;;;;;;5005201;28;20038;-74
2021/12/08 07:24:51;;;;;;;14.27;7.25;;;7.90;99.90;;;;;;5014215;28;20518;-74
2021/12/08 07:27:37;;;;;;;10.85;6.32;;;7.80;99.90;;;;;;5020642;28;20065;-73
2021/12/08 07:30:11;;;;;;;11.77;6.50;;;7.80;99.90;;;;;;5021236;28;20030;-73
2021/12/08 07:32:38;;;;;;;12.75;7.28;;;7.80;99.90;;;;;;5008804;28;20053;-73
2021/12/08 07:35:16;;;;;;;11.43;7.63;;;7.70;99.90;;;;;;5016132;28;20034;-74
2021/12/08 07:37:43;;;;;;;12.93;7.55;;;7.60;99.90;;;;;;5013943;28;20040;-74
2021/12/08 07:40:16;;;;;;;11.95;7.75;;;7.70;99.90;;;;;;5022866;28;20053;-73
2021/12/08 07:42:50;;;;;;;11.10;7.10;;;7.70;99.90;;;;;;5057708;28;20095;-78
2021/12/08 07:45:38;;;;;;;11.48;7.15;;;7.70;99.90;;;;;;5056722;28;20032;-77
2021/12/08 07:48:13;;;;;;;13.82;7.18;;;7.80;99.90;;;;;;5056804;28;20013;-77
2021/12/08 07:50:47;;;;;;;17.88;7.97;;;7.80;99.90;;;;;;5050102;28;20390;-77
2021/12/08 07:53:17;;;;;;;16.92;8.02;;;7.80;99.90;;;;;;5057411;28;20055;-77
2021/12/08 07:55:47;;;;;;;15.27;7.47;;;7.80;99.90;;;;;;5053722;28;20033;-77
2021/12/08 07:58:15;;;;;;;11.20;6.82;;;7.90;99.90;;;;;;5056447;28;20032;-77
2021/12/08 08:01:01;;;;;;;11.13;6.97;;;8.00;99.90;;;;;;5051918;28;20489;-77
2021/12/08 08:03:30;;;;;;;12.00;6.22;;;8.10;99.90;;;;;;5047995;28;20040;-82
2021/12/08 08:05:58;;;;;;;10.65;5.90;;;8.20;99.90;;;;;;5055188;28;20397;-83
2021/12/08 08:08:30;;;;;;;8.95;5.13;;;8.10;99.90;;;;;;5059789;28;20029;-82
2021/12/08 08:11:01;;;;;;;8.43;4.70;;;8.20;99.90;;;;;;5064277;28;20035;-81
2021/12/08 08:13:28;;;;;;;8.55;4.88;;;8.20;99.90;;;;;;5045083;28;20021;-83
2021/12/08 08:16:04;;;;;;;9.40;5.13;;;8.30;99.90;;;;;;5061063;28;20017;-85
2021/12/08 08:18:35;;;;;;;9.95;5.15;;;8.30;99.90;;;;;;5054384;28;20112;-85
2021/12/08 08:21:07;;;;;;;11.55;5.35;;;8.30;99.90;;;;;;5062486;28;20056;-83
2021/12/08 08:23:34;;;;;;;11.35;6.35;;;8.40;99.90;;;;;;5051445;28;20025;-83
2021/12/08 08:26:01;;;;;;;56.85;25.00;;;8.40;99.90;;;;;;5060616;28;20052;-83
2021/12/08 08:28:27;;;;;;;50.65;18.70;;;8.50;99.90;;;;;;5058864;28;20028;-82
2021/12/08 08:30:57;;;;;;;112.97;26.30;;;8.60;99.90;;;;;;5047488;28;20029;-83
2021/12/08 08:33:25;;;;;;;193.73;47.63;;;8.80;99.90;;;;;;5049427;28;20112;-82
2021/12/08 08:35:54;;;;;;;226.18;51.05;;;8.80;99.90;;;;;;5052940;28;20119;-83
2021/12/08 08:38:25;;;;;;;124.80;31.25;;;8.90;99.90;;;;;;5059689;28;20044;-82
2021/12/08 08:41:00;;;;;;;367.90;88.43;;;8.90;99.90;;;;;;5062677;28;20059;-81
2021/12/08 08:43:26;;;;;;;95.93;28.48;;;9.00;99.90;;;;;;5057387;28;20025;-82
2021/12/08 08:45:59;;;;;;;149.88;38.00;;;9.10;99.90;;;;;;5057268;28;20029;-81
2021/12/08 08:48:41;;;;;;;28.40;10.13;;;9.10;99.90;;;;;;5052534;28;20028;-80
2021/12/08 08:51:12;;;;;;;26.55;9.73;;;9.10;99.90;;;;;;5049802;28;20033;-81
2021/12/08 08:53:43;;;;;;;29.02;10.35;;;9.10;99.90;;;;;;5052667;28;20500;-81
2021/12/08 08:56:15;;;;;;;8.93;4.28;;;9.00;99.90;;;;;;5054446;28;20025;-77
2021/12/08 08:58:50;;;;;;;8.05;4.10;;;8.90;99.90;;;;;;5047790;28;20113;-79
2021/12/08 09:01:20;;;;;;;8.38;3.60;;;8.80;99.90;;;;;;5051690;28;20037;-78
2021/12/08 09:04:10;;;;;;;6.88;3.60;;;8.80;99.90;;;;;;5052718;28;20025;-79
2021/12/08 09:06:43;;;;;;;8.38;2.90;;;8.80;99.90;;;;;;5045997;28;20033;-79
2021/12/08 09:09:13;;;;;;;4.50;2.25;;;8.70;99.90;;;;;;5052925;28;20052;-79
2021/12/08 09:12:12;;;;;;;10.23;4.22;;;8.70;99.90;;;;;;5052293;28;20033;-80
2021/12/08 09:14:52;;;;;;;9.18;3.95;;;8.80;99.90;;;;;;5052096;28;20098;-80
2021/12/08 09:17:23;;;;;;;31.08;11.77;;;8.80;99.90;;;;;;5052999;28;20028;-80
2021/12/08 09:19:59;;;;;;;17.42;6.90;;;8.90;99.90;;;;;;5052767;28;20562;-79
2021/12/08 09:22:34;;;;;;;52.45;18.52;;;8.90;99.90;;;;;;5053259;28;20025;-80
2021/12/08 09:25:08;;;;;;;76.65;27.40;;;8.90;99.90;;;;;;5047953;28;20044;-80
2021/12/08 09:27:39;;;;;;;69.70;23.42;;;9.00;99.90;;;;;;5058813;28;20045;-79
2021/12/08 09:30:23;;;;;;;33.13;12.07;;;9.00;99.90;;;;;;5060176;28;20017;-79
2021/12/08 09:32:54;;;;;;;16.38;7.30;;;9.00;99.90;;;;;;5069057;28;20017;-79
2021/12/08 09:35:26;;;;;;;19.85;8.30;;;9.00;99.90;;;;;;5059426;28;20025;-79
2021/12/08 09:37:57;;;;;;;15.60;7.00;;;9.10;99.90;;;;;;5058770;28;20028;-80
2021/12/08 09:40:25;;;;;;;21.98;9.90;;;9.10;99.90;;;;;;5054711;28;20041;-82
2021/12/08 09:42:56;;;;;;;35.35;13.50;;;9.10;99.90;;;;;;5056721;28;20024;-82
2021/12/08 09:45:28;;;;;;;16.27;7.57;;;9.20;99.90;;;;;;5060013;28;20124;-82
2021/12/08 09:47:54;;;;;;;7.95;3.80;;;9.20;99.90;;;;;;5053757;28;20040;-81
2021/12/08 09:50:20;;;;;;;12.80;5.82;;;9.30;99.90;;;;;;5059538;28;20157;-81
2021/12/08 09:52:47;;;;;;;15.00;8.23;;;9.30;99.90;;;;;;5057663;28;20119;-80
2021/12/08 09:55:16;;;;;;;9.95;5.20;;;9.40;99.90;;;;;;5054348;28;20036;-82
2021/12/08 09:57:43;;;;;;;7.47;3.40;;;9.40;99.90;;;;;;5058726;28;20087;-82
2021/12/08 10:00:15;;;;;;;8.07;4.20;;;9.50;99.90;;;;;;5058012;28;20501;-82
2021/12/08 10:02:41;;;;;;;6.22;2.92;;;9.50;99.90;;;;;;5059903;28;20013;-82
2021/12/08 10:05:14;;;;;;;10.57;2.95;;;9.50;99.90;;;;;;5059611;28;20485;-82
2021/12/08 10:07:40;;;;;;;7.00;2.85;;;9.50;99.90;;;;;;5060529;28;20574;-83
2021/12/08 10:10:09;;;;;;;6.38;2.65;;;9.50;99.90;;;;;;5060112;28;20028;-82
2021/12/08 10:12:37;;;;;;;7.13;2.60;;;9.50;99.90;;;;;;5047287;28;20035;-82
2021/12/08 10:15:06;;;;;;;6.45;3.08;;;9.50;99.90;;;;;;5055630;28;20039;-82
2021/12/08 10:17:31;;;;;;;6.25;2.85;;;9.50;99.90;;;;;;5059845;28;20556;-81
2021/12/08 10:20:33;;;;;;;8.43;3.65;;;9.50;99.90;;;;;;5060662;28;20120;-84
2021/12/08 10:23:15;;;;;;;6.20;2.47;;;9.50;99.90;;;;;;5064540;28;20031;-84
2021/12/08 10:25:58;;;;;;;7.80;3.75;;;9.50;99.90;;;;;;5055683;28;20024;-83
2021/12/08 10:28:39;;;;;;;5.40;2.13;;;9.60;99.90;;;;;;5053387;28;20070;-85
2021/12/08 10:31:08;;;;;;;6.38;3.33;;;9.60;99.90;;;;;;5056899;28;20037;-84
2021/12/08 10:36:45;;;;;;;5.70;2.33;;;9.70;99.90;;;;;;5062815;28;20056;-83
2021/12/08 10:39:37;;;;;;;4.60;2.10;;;9.70;99.90;;;;;;5060020;28;20086;-84
2021/12/08 10:42:17;;;;;;;4.90;2.10;;;9.80;99.90;;;;;;5056343;28;20083;-84
2021/12/08 10:45:12;;;;;;;3.90;1.95;;;9.80;99.90;;;;;;5048452;28;20029;-79
2021/12/08 10:47:49;;;;;;;5.32;2.17;;;9.90;99.90;;;;;;5064729;28;20139;-80
2021/12/08 10:56:03;;;;;;;6.30;2.30;;;10.10;99.90;;;;;;5063392;28;20075;-81
2021/12/08 10:58:34;;;;;;;4.00;1.55;;;10.10;99.90;;;;;;5063009;28;20177;-83
2021/12/08 11:01:12;;;;;;;5.30;1.70;;;10.10;99.90;;;;;;5061574;28;20024;-84
2021/12/08 11:03:39;;;;;;;4.63;1.90;;;10.10;99.90;;;;;;5058829;28;20042;-82
2021/12/08 11:06:06;;;;;;;4.00;1.88;;;10.10;99.90;;;;;;5059916;28;20021;-82
2021/12/08 11:08:36;;;;;;;5.57;1.80;;;10.20;99.90;;;;;;5062351;28;20050;-83
2021/12/08 11:11:12;;;;;;;3.65;1.70;;;10.30;99.90;;;;;;5059426;28;20021;-83
2021/12/08 11:13:53;;;;;;;3.92;1.55;;;10.30;99.90;;;;;;5062838;28;20807;-84
2021/12/08 11:16:20;;;;;;;3.83;1.70;;;10.40;99.90;;;;;;5062752;28;20059;-83
2021/12/08 11:19:08;;;;;;;4.38;1.98;;;10.50;99.90;;;;;;5052872;28;20036;-85
2021/12/08 11:21:38;;;;;;;3.85;1.70;;;10.60;99.90;;;;;;5059451;28;20034;-85
2021/12/08 11:24:13;;;;;;;4.68;1.80;;;10.60;99.90;;;;;;5051583;28;20025;-85
2021/12/08 11:26:41;;;;;;;;;;;10.90;99.90;;;;;;5062188;28;20067;-85
2021/12/08 11:29:09;;;;;;;5.03;2.00;;;10.90;99.90;;;;;;5060020;28;19949;-85
2021/12/08 11:31:43;;;;;;;7.25;2.50;;;11.00;99.90;;;;;;5057476;28;20021;-83
2021/12/08 11:34:14;;;;;;;13.90;5.72;;;11.20;99.90;;;;;;5054393;28;20028;-85
2021/12/08 11:36:41;;;;;;;26.05;10.52;;;11.30;99.90;;;;;;5060843;28;20499;-87
2021/12/08 11:39:15;;;;;;;4.95;2.80;;;11.20;99.90;;;;;;5062291;28;20037;-88
2021/12/08 11:41:42;;;;;;;14.23;4.72;;;11.00;99.90;;;;;;5054229;28;20032;-82
2021/12/08 11:44:16;;;;;;;8.50;3.53;;;10.90;99.90;;;;;;5058977;28;20486;-82
2021/12/08 11:46:49;;;;;;;6.75;2.40;;;10.80;99.90;;;;;;5060972;28;20033;-81
2021/12/08 11:49:15;;;;;;;6.50;2.92;;;10.70;99.90;;;;;;5060855;28;20118;-81
2021/12/08 11:51:44;;;;;;;5.90;2.47;;;10.70;99.90;;;;;;5054024;28;20500;-82
2021/12/08 11:54:30;;;;;;;4.20;1.80;;;10.70;99.90;;;;;;5058329;28;20083;-82
2021/12/08 11:57:17;;;;;;;9.25;2.60;;;10.70;99.90;;;;;;5053911;28;20025;-88
2021/12/08 12:00:10;;;;;;;5.75;2.03;;;10.70;99.90;;;;;;5061860;28;20086;-86
2021/12/08 12:02:43;;;;;;;7.40;3.30;;;10.60;99.90;;;;;;5058928;28;20017;-85
2021/12/08 12:05:15;;;;;;;10.30;5.35;;;10.70;99.90;;;;;;5057395;28;20086;-84
2021/12/08 12:07:41;;;;;;;3.72;1.50;;;10.70;99.90;;;;;;5054266;28;20389;-84
2021/12/08 12:10:10;;;;;;;5.28;2.00;;;10.60;99.90;;;;;;5058908;28;20025;-86
2021/12/08 12:12:38;;;;;;;5.45;2.78;;;10.70;99.90;;;;;;5056599;28;20041;-87
2021/12/08 12:15:09;;;;;;;13.07;6.75;;;10.80;99.90;;;;;;5059617;28;20052;-85
2021/12/08 12:17:35;;;;;;;7.80;2.53;;;10.80;99.90;;;;;;5059893;28;20025;-80
2021/12/08 12:20:06;;;;;;;5.80;2.45;;;10.90;99.90;;;;;;5057579;28;20033;-79
2021/12/08 12:22:40;;;;;;;6.95;2.95;;;10.90;99.90;;;;;;5058782;28;20035;-75
2021/12/08 12:25:32;;;;;;;4.78;2.22;;;11.00;99.90;;;;;;5054775;28;20115;-78
2021/12/08 12:28:19;;;;;;;5.72;2.80;;;11.10;99.90;;;;;;4989843;28;20041;-77
2021/12/08 12:31:19;;;;;;;5.47;3.28;;;11.10;99.90;;;;;;4993419;28;20546;-82
2021/12/08 12:33:48;;;;;;;7.07;2.38;;;11.20;99.90;;;;;;4992201;28;20035;-78
2021/12/08 12:36:18;;;;;;;8.18;3.10;;;11.10;99.90;;;;;;4996588;28;20041;-79
2021/12/08 12:38:44;;;;;;;4.82;2.22;;;11.00;99.90;;;;;;4998200;28;20115;-77
2021/12/08 12:41:32;;;;;;;7.63;2.47;;;11.00;99.90;;;;;;4996705;28;20121;-77
2021/12/08 12:44:24;;;;;;;13.65;7.80;;;11.20;99.90;;;;;;4996000;28;20395;-78
2021/12/08 12:47:09;;;;;;;13.20;7.60;;;11.40;99.90;;;;;;4995903;28;20049;-78
2021/12/08 12:49:37;;;;;;;10.65;6.35;;;11.60;99.90;;;;;;4995743;28;20034;-77
2021/12/08 12:52:08;;;;;;;5.45;2.20;;;11.60;99.90;;;;;;4992245;28;20588;-77
2021/12/08 12:54:35;;;;;;;7.07;2.40;;;11.50;98.90;;;;;;4990466;28;20063;-76
2021/12/08 12:57:03;;;;;;;15.15;8.05;;;11.40;99.10;;;;;;4999333;28;20057;-84
2021/12/08 12:59:50;;;;;;;11.52;5.57;;;11.40;99.10;;;;;;4996456;28;20054;-83
2021/12/08 13:02:24;;;;;;;36.40;12.75;;;11.30;99.40;;;;;;4996985;28;20022;-81
2021/12/08 13:04:50;;;;;;;;;;;11.30;99.60;;;;;;5021285;28;20028;-81
2021/12/08 13:07:15;;;;;;;52.22;13.90;;;11.30;99.20;;;;;;5052559;28;20311;-82
2021/12/08 13:09:52;;;;;;;39.60;10.95;;;11.40;99.10;;;;;;5051357;28;20029;-82
2021/12/08 13:12:26;;;;;;;53.33;17.02;;;11.40;99.90;;;;;;5056798;28;20033;-80
2021/12/08 13:15:16;;;;;;;15.90;5.10;;;11.40;99.90;;;;;;5053072;28;20033;-82
2021/12/08 13:18:05;;;;;;;22.17;8.05;;;11.30;99.10;;;;;;5051552;28;20033;-78
2021/12/08 13:20:42;;;;;;;50.15;18.35;;;11.30;99.90;;;;;;5049770;28;20049;-78
2021/12/08 13:23:11;;;;;;;42.80;14.77;;;11.20;99.80;;;;;;5050268;28;20035;-77
2021/12/08 13:28:24;;;;;;;10.95;5.35;;;11.20;98.80;;;;;;5047214;28;20029;-78
2021/12/08 13:31:19;;;;;;;4.10;1.75;;;11.10;98.40;;;;;;5056704;28;20104;-77
2021/12/08 13:33:57;;;;;;;6.80;3.10;;;11.10;98.40;;;;;;5056429;28;20033;-77
2021/12/08 13:36:28;;;;;;;2.33;1.00;;;11.10;99.20;;;;;;5048560;28;20144;-79
2021/12/08 13:38:58;;;;;;;3.33;1.20;;;11.20;98.30;;;;;;5050082;28;20119;-78
2021/12/08 13:41:27;;;;;;;3.58;1.30;;;11.30;98.70;;;;;;5051877;28;20028;-77
2021/12/08 13:43:54;;;;;;;2.47;1.08;;;11.30;98.60;;;;;;5054711;28;20036;-77
2021/12/08 13:46:43;;;;;;;2.47;1.80;;;11.30;98.30;;;;;;5055418;28;20158;-78
2021/12/08 13:49:18;;;;;;;4.45;1.92;;;11.20;98.80;;;;;;5049835;28;20029;-78
2021/12/08 13:52:06;;;;;;;4.65;2.67;;;11.10;98.50;;;;;;5054465;28;20405;-77
2021/12/08 13:54:36;;;;;;;4.32;2.47;;;11.00;99.20;;;;;;5056852;28;20035;-78
2021/12/08 13:57:05;;;;;;;4.43;1.67;;;11.00;99.60;;;;;;5059143;28;20115;-77
2021/12/08 13:59:52;;;;;;;4.78;1.50;;;11.00;98.70;;;;;;5056403;28;20041;-78
2021/12/08 14:02:28;;;;;;;2.15;1.40;;;11.10;98.90;;;;;;5044129;28;20021;-78
2021/12/08 14:05:00;;;;;;;3.35;1.65;;;11.30;98.50;;;;;;5059770;28;20028;-78
2021/12/08 14:07:26;;;;;;;2.72;1.40;;;12.00;97.60;;;;;;5058162;28;20515;-77